Time;durP1;ratioP1;P1;durP2;ratioP2;P2;SDS_P1;SDS_P2;PMS_P1;PMS_P2;Temp;Humidity;BMP_temperature;BMP_pressure;BME280_temperature;BME280_humidity;BME280_pressure;Samples;Min_cycle;Max_cycle;Signal;HPM_P1;HPM_P2
2021/11/23 00:01:32;;;;;;;15.73;8.65;;;1.70;99.90;;;1.45;79.29;102127.78;5017223;28;20171;-76
2021/11/23 00:04:01;;;;;;;9.90;8.30;;;1.70;99.90;;;1.47;79.28;102125.84;5017210;28;20252;-77
2021/11/23 00:06:34;;;;;;;9.30;7.03;;;1.70;99.90;;;1.37;79.46;102125.66;5017109;28;20175;-76
2021/11/23 00:09:03;;;;;;;13.32;9.10;;;1.60;99.90;;;1.35;79.78;102132.94;5016555;28;20174;-76
2021/11/23 00:11:32;;;;;;;12.10;8.07;;;1.60;99.90;;;1.26;80.03;102131.78;5016848;28;20712;-76
2021/11/23 00:14:02;;;;;;;16.27;7.95;;;1.50;99.90;;;1.29;80.01;102134.25;5015586;28;20225;-75
2021/11/23 00:16:31;;;;;;;12.02;7.60;;;1.50;99.90;;;1.31;79.79;102131.44;5015225;28;20175;-77
2021/11/23 00:19:00;;;;;;;20.58;10.07;;;1.50;99.90;;;1.26;79.96;102128.25;5015776;28;20217;-74
2021/11/23 00:21:29;;;;;;;16.88;8.48;;;1.50;99.90;;;1.27;80.04;102127.28;5015451;28;20170;-76
2021/11/23 00:23:58;;;;;;;12.93;8.27;;;1.50;99.90;;;1.27;80.02;102128.16;5020380;28;20241;-76
2021/11/23 00:26:27;;;;;;;13.77;8.57;;;1.50;99.90;;;1.22;80.15;102121.44;5021718;28;20166;-75
2021/11/23 00:28:56;;;;;;;12.00;9.70;;;1.50;99.90;;;1.18;80.78;102122.63;5017784;28;20189;-76
2021/11/23 00:31:26;;;;;;;12.50;9.60;;;1.40;99.90;;;1.31;80.40;102126.09;5017530;28;20289;-76
2021/11/23 00:33:55;;;;;;;12.35;9.80;;;1.50;99.90;;;1.36;80.13;102121.28;5018972;28;20290;-75
2021/11/23 00:36:24;;;;;;;15.05;9.80;;;1.50;99.90;;;1.35;80.04;102116.09;5017782;28;20608;-75
2021/11/23 00:38:52;;;;;;;16.25;10.93;;;1.50;99.90;;;1.34;80.04;102107.22;5017866;28;20248;-77
2021/11/23 00:41:21;;;;;;;20.67;10.35;;;1.50;99.90;;;1.32;80.21;102117.16;5017845;28;20361;-75
2021/11/23 00:43:50;;;;;;;11.35;10.15;;;1.50;99.90;;;1.31;80.34;102115.44;5018335;28;20206;-76
2021/11/23 00:46:19;;;;;;;18.83;10.68;;;1.50;99.90;;;1.16;80.37;102108.59;5019428;28;20199;-75
2021/11/23 00:48:53;;;;;;;13.77;11.75;;;1.50;99.90;;;1.19;80.75;102111.88;5020258;28;20232;-75
2021/11/23 00:51:22;;;;;;;12.20;9.88;;;1.40;99.90;;;1.16;80.63;102111.25;5019582;28;20266;-75
2021/11/23 00:53:51;;;;;;;11.60;9.80;;;1.40;99.90;;;1.27;80.53;102105.97;5018904;28;20226;-75
2021/11/23 00:56:20;;;;;;;16.00;11.15;;;1.40;99.90;;;1.28;80.69;102095.19;5024879;28;20210;-73
2021/11/23 00:58:49;;;;;;;14.38;11.25;;;1.50;99.90;;;1.30;80.61;102098.63;5023453;28;20659;-76
2021/11/23 01:01:18;;;;;;;13.52;10.75;;;1.50;99.90;;;1.17;80.77;102095.13;5023848;28;20166;-75
2021/11/23 01:03:47;;;;;;;20.10;12.00;;;1.50;99.90;;;1.14;81.02;102102.50;5023350;28;20233;-75
2021/11/23 01:06:17;;;;;;;13.70;11.57;;;1.40;99.90;;;1.35;80.86;102094.75;5020846;28;20237;-75
2021/11/23 01:08:47;;;;;;;18.95;11.20;;;1.50;99.90;;;1.36;80.60;102091.09;5018898;28;20431;-75
2021/11/23 01:11:20;;;;;;;19.35;12.45;;;1.50;99.90;;;1.34;80.39;102088.56;5017143;28;20631;-76
2021/11/23 01:13:50;;;;;;;15.07;12.10;;;1.50;99.90;;;1.36;80.60;102088.44;5016688;28;20245;-75
2021/11/23 01:16:19;;;;;;;16.00;12.30;;;1.50;99.90;;;1.38;80.78;102081.19;5016716;28;20178;-75
2021/11/23 01:18:48;;;;;;;15.68;11.70;;;1.50;99.90;;;1.49;80.63;102076.75;5015799;28;20550;-75
2021/11/23 01:21:19;;;;;;;14.85;11.52;;;1.60;99.90;;;1.64;80.43;102077.41;5013765;28;20248;-76
2021/11/23 01:23:48;;;;;;;22.60;12.63;;;1.60;99.90;;;1.56;80.18;102083.31;5014205;28;20221;-76
2021/11/23 01:26:16;;;;;;;14.73;12.23;;;1.70;99.90;;;1.61;80.17;102082.97;5014421;28;20268;-75
2021/11/23 01:28:45;;;;;;;17.45;10.93;;;1.70;99.90;;;1.73;79.82;102074.06;5014289;28;20190;-75
2021/11/23 01:31:14;;;;;;;18.08;12.80;;;1.80;99.90;;;1.74;79.91;102073.09;5014191;28;20257;-75
2021/11/23 01:33:43;;;;;;;14.27;11.25;;;1.80;99.90;;;1.72;79.87;102067.00;5014358;28;20213;-75
2021/11/23 01:36:11;;;;;;;15.98;13.10;;;1.80;99.90;;;1.77;79.48;102070.19;5014190;28;20253;-75
2021/11/23 01:38:42;;;;;;;15.15;12.48;;;1.90;99.90;;;1.66;79.58;102062.13;5014319;28;20178;-76
2021/11/23 01:41:11;;;;;;;18.33;12.43;;;1.80;99.90;;;1.63;79.89;102067.72;5012478;28;20222;-75
2021/11/23 01:43:40;;;;;;;15.73;11.95;;;1.80;99.90;;;1.63;79.50;102059.69;5013769;28;20297;-76
2021/11/23 01:46:09;;;;;;;17.60;12.27;;;1.80;99.90;;;1.62;80.17;102055.31;5013697;28;20261;-75
2021/11/23 01:48:38;;;;;;;25.58;12.48;;;1.80;99.90;;;1.54;80.76;102049.72;5013632;28;20560;-75
2021/11/23 01:51:07;;;;;;;14.98;13.18;;;1.70;99.90;;;1.78;80.27;102055.88;5013837;28;20240;-74
2021/11/23 01:53:37;;;;;;;17.92;13.45;;;1.80;99.90;;;1.87;79.74;102056.97;5013460;28;20321;-75
2021/11/23 01:56:07;;;;;;;21.42;12.43;;;1.90;99.90;;;1.87;79.64;102065.84;5013566;28;20182;-75
2021/11/23 01:58:37;;;;;;;16.65;12.85;;;2.00;99.90;;;1.96;79.70;102073.13;5013603;28;20174;-75
2021/11/23 02:01:06;;;;;;;19.45;12.32;;;2.00;99.90;;;1.98;79.51;102068.53;5013564;28;20574;-75
2021/11/23 02:03:38;;;;;;;17.52;12.80;;;2.10;99.90;;;2.10;79.44;102062.25;5013385;28;20408;-74
2021/11/23 02:06:09;;;;;;;12.25;10.93;;;2.10;99.90;;;2.06;79.30;102068.78;5013671;28;20174;-74
2021/11/23 02:08:38;;;;;;;15.00;11.07;;;2.10;99.90;;;2.10;79.22;102072.91;5013406;28;20174;-75
2021/11/23 02:11:08;;;;;;;14.68;11.73;;;2.20;99.90;;;2.14;79.17;102073.53;5013363;28;20208;-75
2021/11/23 02:13:38;;;;;;;18.98;11.75;;;2.30;99.90;;;2.04;79.56;102068.03;5011427;28;20284;-75
2021/11/23 02:16:07;;;;;;;15.50;12.30;;;2.10;99.90;;;2.28;78.98;102065.28;5013159;28;20265;-76
2021/11/23 02:18:36;;;;;;;12.88;10.50;;;2.30;99.90;;;2.25;78.98;102060.19;5013506;28;20257;-74
2021/11/23 02:21:07;;;;;;;14.82;12.52;;;2.30;99.90;;;2.40;78.68;102066.16;5013636;28;20184;-75
2021/11/23 02:23:37;;;;;;;16.65;10.77;;;2.40;99.90;;;2.38;78.36;102062.75;5012221;28;20210;-75
2021/11/23 02:26:06;;;;;;;13.85;10.98;;;2.40;99.90;;;2.28;79.02;102049.25;5013179;28;20174;-76
2021/11/23 02:28:35;;;;;;;17.95;11.75;;;2.40;99.90;;;2.35;78.38;102045.16;5013098;28;20708;-77
2021/11/23 02:31:06;;;;;;;12.90;10.93;;;2.40;99.90;;;2.31;78.82;102048.19;5013640;28;20188;-75
2021/11/23 02:33:35;;;;;;;14.05;10.80;;;2.40;99.90;;;2.23;78.94;102050.63;5013422;28;20661;-74
2021/11/23 02:36:09;;;;;;;17.98;12.00;;;2.40;99.90;;;2.35;78.81;102052.31;5013308;28;20193;-74
2021/11/23 02:38:40;;;;;;;11.80;10.60;;;2.40;99.90;;;2.42;78.74;102050.88;5013499;28;20174;-76
2021/11/23 02:41:12;;;;;;;16.63;12.20;;;2.50;99.90;;;2.48;78.79;102045.00;5012657;28;20194;-75
2021/11/23 02:43:42;;;;;;;15.00;12.75;;;2.50;99.90;;;2.58;78.33;102040.63;5013185;28;20729;-75
2021/11/23 02:46:12;;;;;;;19.20;12.18;;;2.60;99.90;;;2.60;78.28;102041.38;5013533;28;20238;-76
2021/11/23 02:48:41;;;;;;;12.50;10.38;;;2.60;99.90;;;2.73;77.73;102027.88;5013211;28;20202;-76
2021/11/23 02:51:15;;;;;;;13.40;12.00;;;2.70;99.90;;;2.63;78.08;102027.75;5012962;28;20189;-76
2021/11/23 02:53:45;;;;;;;21.40;12.55;;;2.70;99.90;;;2.83;77.97;102024.31;5015285;28;20275;-74
2021/11/23 02:56:15;;;;;;;15.07;10.48;;;2.80;99.90;;;2.91;77.29;102027.22;5014596;28;20178;-76
2021/11/23 02:58:47;;;;;;;15.02;11.73;;;2.90;99.90;;;3.00;76.77;102022.97;5016049;28;20170;-76
2021/11/23 03:01:20;;;;;;;12.07;10.85;;;3.00;99.90;;;3.05;77.03;102013.56;5019221;28;20632;-75
2021/11/23 03:03:51;;;;;;;16.90;12.20;;;3.00;99.90;;;2.99;76.96;102022.09;5022985;28;20208;-75
2021/11/23 03:06:23;;;;;;;15.93;10.80;;;3.10;99.90;;;3.03;77.00;102033.41;5024307;28;20182;-75
2021/11/23 03:08:54;;;;;;;16.00;11.95;;;3.10;86.30;;;3.14;76.58;102021.81;5026214;28;20228;-76
2021/11/23 03:11:24;;;;;;;12.75;10.73;;;3.10;48.60;;;3.29;76.49;102024.06;5025108;28;20183;-75
2021/11/23 03:13:53;;;;;;;18.63;12.10;;;3.20;1.00;;;3.27;76.52;102012.66;5015829;28;20256;-75
2021/11/23 03:16:22;;;;;;;15.80;11.48;;;3.30;1.00;;;3.30;76.34;102016.88;5016633;28;20527;-74
2021/11/23 03:18:50;;;;;;;14.70;11.63;;;3.30;1.00;;;3.30;76.39;102019.56;5018562;28;20201;-74
2021/11/23 03:21:21;;;;;;;15.05;10.82;;;3.30;1.00;;;3.30;77.01;102023.09;5024299;28;20194;-76
2021/11/23 03:23:50;;;;;;;15.68;10.48;;;3.30;1.00;;;3.41;76.96;102023.03;5026466;28;20213;-75
2021/11/23 03:26:19;;;;;;;14.05;11.63;;;3.40;1.00;;;3.46;77.15;102023.50;5025291;28;20209;-74
2021/11/23 03:28:47;;;;;;;16.60;12.52;;;3.40;99.90;;;3.37;77.37;102013.59;5024086;28;20181;-75
2021/11/23 03:31:16;;;;;;;21.13;14.23;;;3.40;96.90;;;3.53;76.84;102026.53;5022239;28;20205;-73
2021/11/23 03:33:45;;;;;;;17.63;12.40;;;3.50;99.90;;;3.45;77.24;102028.97;5021752;28;20245;-74
2021/11/23 03:36:14;;;;;;;14.20;11.05;;;3.50;99.90;;;3.49;77.13;102019.72;5023601;28;20750;-75
2021/11/23 03:38:44;;;;;;;17.52;12.05;;;3.50;99.90;;;3.47;77.46;102019.00;5018464;28;20190;-75
2021/11/23 03:41:13;;;;;;;18.92;12.45;;;3.50;99.90;;;3.56;77.43;102023.59;5019325;28;20515;-74
2021/11/23 03:43:41;;;;;;;18.20;12.60;;;3.60;1.00;;;3.56;77.94;102025.41;5017195;28;20202;-75
2021/11/23 03:46:10;;;;;;;18.75;12.52;;;3.60;1.00;;;3.65;78.16;102014.78;5017272;28;20539;-75
2021/11/23 03:48:39;;;;;;;18.90;11.80;;;3.60;98.60;;;3.74;77.81;102011.31;5017227;28;20178;-75
2021/11/23 03:51:08;;;;;;;14.80;11.18;;;3.70;79.00;;;3.55;78.12;102016.53;5016881;28;20195;-75
2021/11/23 03:53:37;;;;;;;18.55;11.20;;;3.60;1.00;;;3.57;78.34;102014.59;5022610;28;20268;-75
2021/11/23 03:56:07;;;;;;;14.48;11.32;;;3.60;71.20;;;3.65;78.58;102011.25;5018165;28;20174;-73
2021/11/23 03:58:36;;;;;;;17.35;13.23;;;3.60;99.90;;;3.67;78.72;102003.94;5017989;28;20182;-74
2021/11/23 04:01:07;;;;;;;14.27;11.77;;;3.60;1.00;;;3.62;78.86;102004.34;5021601;28;20581;-75
2021/11/23 04:03:37;;;;;;;18.00;12.93;;;3.60;1.00;;;3.67;79.12;102012.81;5017159;28;20202;-74
2021/11/23 04:06:06;;;;;;;17.65;13.60;;;3.60;1.00;;;3.81;78.86;102000.94;5017423;28;20232;-75
2021/11/23 04:08:35;;;;;;;16.67;11.35;;;3.80;99.90;;;3.74;79.08;101997.91;5014815;28;20198;-74
2021/11/23 04:11:05;;;;;;;20.95;12.70;;;3.80;99.90;;;3.74;79.37;101992.56;5015901;28;20178;-74
2021/11/23 04:13:34;;;;;;;17.45;13.90;;;3.80;1.00;;;3.76;79.66;101987.94;5015808;28;20222;-75
2021/11/23 04:16:05;;;;;;;18.98;13.30;;;3.80;1.00;;;3.78;79.98;101988.63;5015826;28;20204;-75
2021/11/23 04:18:34;;;;;;;17.48;12.75;;;3.80;1.00;;;3.75;79.84;101985.38;5016016;28;20534;-75
2021/11/23 04:21:03;;;;;;;19.52;13.15;;;3.80;99.90;;;3.70;80.57;101987.59;5015694;28;20186;-74
2021/11/23 04:23:32;;;;;;;15.45;13.95;;;3.80;99.90;;;3.65;80.59;101990.69;5015776;28;20289;-75
2021/11/23 04:26:01;;;;;;;17.02;13.45;;;3.70;99.90;;;3.69;81.01;101985.91;5015750;28;20196;-75
2021/11/23 04:28:31;;;;;;;19.52;14.35;;;3.70;99.90;;;3.75;80.87;101983.56;5015535;28;20183;-74
2021/11/23 04:31:00;;;;;;;17.20;13.70;;;3.80;99.90;;;3.71;81.34;101984.81;5015677;28;20257;-74
2021/11/23 04:33:29;;;;;;;29.45;15.02;;;3.70;99.90;;;3.71;81.62;101978.59;5015534;28;20691;-75
2021/11/23 04:35:59;;;;;;;18.08;15.27;;;3.70;99.90;;;3.67;81.48;101975.34;5014358;28;20190;-74
2021/11/23 04:38:27;;;;;;;27.38;15.52;;;3.80;99.90;;;3.81;81.45;101977.69;5015307;28;20671;-74
2021/11/23 04:40:56;;;;;;;25.42;17.67;;;3.80;99.90;;;3.77;81.84;101973.59;5015229;28;20181;-75
2021/11/23 04:43:25;;;;;;;22.15;15.20;;;3.80;99.90;;;3.88;81.33;101970.81;5014980;28;20289;-74
2021/11/23 04:45:56;;;;;;;17.60;13.65;;;3.90;99.90;;;3.82;81.25;101971.34;5015534;28;20194;-75
2021/11/23 04:48:25;;;;;;;23.63;14.82;;;3.80;99.90;;;3.82;81.68;101962.47;5016468;28;20249;-74
2021/11/23 04:50:55;;;;;;;19.08;14.43;;;3.90;99.90;;;3.78;81.84;101967.22;5014923;28;20189;-75
2021/11/23 04:53:25;;;;;;;19.58;14.88;;;3.90;99.90;;;3.87;82.05;101968.28;5014864;28;20268;-75
2021/11/23 04:55:53;;;;;;;21.92;14.90;;;3.90;99.90;;;3.94;81.77;101964.91;5014826;28;20178;-74
2021/11/23 04:58:22;;;;;;;24.83;15.20;;;3.90;99.90;;;3.96;81.63;101966.63;5024575;28;20697;-75
2021/11/23 05:00:51;;;;;;;24.08;15.80;;;4.00;99.90;;;4.00;81.90;101963.53;5034021;28;20189;-75
2021/11/23 05:03:21;;;;;;;21.75;15.50;;;4.00;99.90;;;4.03;82.04;101954.38;5035124;28;20240;-75
2021/11/23 05:05:50;;;;;;;25.70;17.23;;;4.00;99.90;;;4.00;82.18;101947.47;5035052;28;20182;-75
2021/11/23 05:08:19;;;;;;;20.80;15.02;;;4.00;99.90;;;4.12;81.73;101950.88;5033623;28;20609;-74
2021/11/23 05:10:48;;;;;;;22.65;16.15;;;4.10;99.90;;;4.08;82.14;101944.97;5035574;28;20216;-74
2021/11/23 05:13:17;;;;;;;21.40;16.30;;;4.10;99.90;;;4.15;81.68;101953.31;5035442;28;20300;-74
2021/11/23 05:15:45;;;;;;;26.60;17.08;;;4.20;99.90;;;4.07;81.82;101964.69;5035596;28;20182;-75
2021/11/23 05:18:14;;;;;;;32.75;17.52;;;4.10;99.90;;;4.01;82.15;101964.41;5034673;28;20197;-74
2021/11/23 05:20:45;;;;;;;28.25;17.25;;;4.10;99.90;;;4.05;82.33;101968.50;5034732;28;20343;-75
2021/11/23 05:23:13;;;;;;;26.88;18.75;;;4.00;99.90;;;4.06;82.05;101973.72;5034378;28;20221;-76
2021/11/23 05:25:42;;;;;;;29.38;18.52;;;4.10;99.90;;;4.07;82.16;101969.19;5034504;28;20196;-75
2021/11/23 05:28:11;;;;;;;21.27;17.02;;;4.10;99.90;;;4.17;81.86;101978.13;5034958;28;20590;-75
2021/11/23 05:30:40;;;;;;;24.75;18.95;;;4.10;99.90;;;4.14;81.83;101978.41;5034348;28;20209;-73
2021/11/23 05:33:09;;;;;;;20.73;16.83;;;4.10;99.90;;;4.17;82.05;101976.28;5036664;28;20225;-76
2021/11/23 05:35:37;;;;;;;22.13;17.92;;;4.20;99.90;;;4.19;82.05;101987.75;5039228;28;20201;-74
2021/11/23 05:38:08;;;;;;;24.42;17.65;;;4.20;99.90;;;4.18;82.14;101987.88;5044712;28;20190;-73
2021/11/23 05:40:37;;;;;;;25.70;18.15;;;4.20;99.90;;;4.17;81.96;101986.16;5034698;28;20181;-74
2021/11/23 05:43:05;;;;;;;27.58;17.00;;;4.20;99.90;;;4.17;82.07;101988.84;5032942;28;20214;-74
2021/11/23 05:45:34;;;;;;;23.40;17.50;;;4.20;99.90;;;4.28;82.08;101978.03;5036972;28;20170;-75
2021/11/23 05:48:03;;;;;;;26.92;19.83;;;4.20;99.90;;;4.24;81.88;101979.28;5044420;28;20173;-74
2021/11/23 05:50:32;;;;;;;23.75;19.90;;;4.30;99.90;;;4.21;82.26;101992.97;5044417;28;20178;-74
2021/11/23 05:53:01;;;;;;;27.48;18.55;;;4.20;99.90;;;4.32;82.25;101979.47;5044449;28;20293;-73
2021/11/23 05:55:33;;;;;;;27.98;19.85;;;4.30;99.90;;;4.39;82.00;101980.63;5045280;28;20228;-73
2021/11/23 05:58:02;;;;;;;23.85;20.05;;;4.30;99.90;;;4.46;81.73;101980.91;5045446;28;20193;-75
2021/11/23 06:00:31;;;;;;;26.80;19.23;;;4.40;99.90;;;4.38;81.86;101976.25;5044682;28;20189;-74
2021/11/23 06:03:00;;;;;;;28.90;18.15;;;4.40;99.90;;;4.35;82.34;101973.84;5072443;28;20223;-74
2021/11/23 06:05:29;;;;;;;22.15;18.33;;;4.40;99.90;;;4.39;82.69;101977.94;5034758;28;20205;-74
2021/11/23 06:07:59;;;;;;;28.08;18.90;;;4.40;99.90;;;4.56;82.21;101979.97;5039727;28;20205;-76
2021/11/23 06:10:28;;;;;;;27.88;18.42;;;4.50;99.90;;;4.56;82.46;101981.78;5032267;28;20193;-75
2021/11/23 06:12:59;;;;;;;27.60;18.60;;;4.50;99.90;;;4.47;82.80;101986.16;5089807;22;20293;-74
2021/11/23 06:15:30;;;;;;;24.88;17.77;;;4.50;99.90;;;4.69;82.37;101988.63;5017642;28;20194;-73
2021/11/23 06:18:01;;;;;;;24.92;18.00;;;4.60;99.90;;;4.69;82.00;101991.31;5016901;28;20233;-73
2021/11/23 06:20:30;;;;;;;26.80;18.67;;;4.70;99.90;;;4.75;82.11;101998.78;5020035;28;20190;-74
2021/11/23 06:23:01;;;;;;;27.58;17.73;;;4.70;99.90;;;4.69;82.71;101994.00;5031344;28;20237;-73
2021/11/23 06:25:32;;;;;;;31.10;19.20;;;4.70;99.90;;;4.77;82.39;102001.34;5050349;28;20197;-73
2021/11/23 06:28:02;;;;;;;26.10;18.70;;;4.70;99.90;;;4.80;82.34;102007.25;5035904;28;20190;-73
2021/11/23 06:30:31;;;;;;;31.20;19.27;;;4.70;99.90;;;4.89;82.49;102015.50;5035542;28;20170;-73
2021/11/23 06:33:02;;;;;;;30.38;18.48;;;4.80;99.90;;;4.88;82.55;102013.78;5035182;28;20218;-73
2021/11/23 06:35:31;;;;;;;25.63;18.85;;;4.90;99.90;;;4.93;82.23;102019.59;5034517;28;20206;-73
2021/11/23 06:38:00;;;;;;;28.70;17.90;;;4.90;99.90;;;4.93;82.33;102016.91;5035713;28;20185;-73
2021/11/23 06:40:29;;;;;;;26.27;18.98;;;4.90;99.90;;;4.89;82.46;102031.59;5035498;28;20192;-73
2021/11/23 06:42:59;;;;;;;25.73;17.40;;;4.90;99.90;;;4.91;82.50;102025.09;5035156;28;20210;-73
2021/11/23 06:45:29;;;;;;;26.23;18.65;;;4.90;99.90;;;4.92;82.82;102025.94;5012119;28;20286;-73
2021/11/23 06:48:00;;;;;;;32.47;19.70;;;4.90;99.90;;;4.98;82.43;102026.25;5011710;28;20211;-73
2021/11/23 06:50:40;;;;;;;27.98;19.40;;;5.00;99.90;;;5.01;82.84;102027.78;5011691;28;20581;-73
2021/11/23 06:53:19;;;;;;;26.92;19.20;;;5.00;99.90;;;5.02;82.91;102032.16;5013382;28;20271;-72
2021/11/23 06:55:51;;;;;;;31.48;19.80;;;5.00;99.90;;;5.09;82.55;102038.66;5010127;28;20217;-72
2021/11/23 06:58:26;;;;;;;34.13;20.95;;;5.00;99.90;;;5.01;82.54;102039.38;5011403;28;20229;-72
2021/11/23 07:01:02;;;;;;;35.60;20.92;;;5.00;99.90;;;5.12;82.65;102043.78;5012038;28;20187;-73
2021/11/23 07:03:36;;;;;;;34.33;21.50;;;5.10;99.90;;;5.13;83.01;102050.84;5011735;28;20271;-74
2021/11/23 07:06:10;;;;;;;30.63;20.65;;;5.10;99.90;;;5.06;83.03;102055.03;5011456;28;20185;-73
2021/11/23 07:08:45;;;;;;;33.63;21.13;;;5.00;99.90;;;5.11;82.87;102052.78;5011466;28;20746;-74
2021/11/23 07:11:20;;;;;;;27.92;21.73;;;5.10;99.90;;;5.14;82.76;102057.88;5014938;28;20670;-74
2021/11/23 07:13:52;;;;;;;31.63;21.17;;;5.10;99.90;;;5.17;82.75;102058.47;5015065;28;20217;-73
2021/11/23 07:16:26;;;;;;;30.23;20.70;;;5.20;99.90;;;5.17;82.93;102068.34;5016478;28;20217;-73
2021/11/23 07:18:55;;;;;;;29.27;20.20;;;5.10;99.90;;;5.16;83.09;102078.22;5015711;28;20575;-73
2021/11/23 07:21:24;;;;;;;36.33;22.80;;;5.10;99.90;;;5.24;83.18;102090.94;5016631;28;20174;-72
2021/11/23 07:23:58;;;;;;;35.58;20.17;;;5.10;99.90;;;5.22;82.64;102093.78;5015356;28;20244;-73
2021/11/23 07:26:29;;;;;;;32.70;20.13;;;5.20;99.90;;;5.13;82.72;102097.28;5015575;28;20281;-74
2021/11/23 07:28:58;;;;;;;32.78;22.75;;;5.10;99.90;;;5.22;82.82;102103.69;5016398;28;20197;-73
2021/11/23 07:31:30;;;;;;;29.65;21.13;;;5.20;99.90;;;5.28;82.69;102096.91;5015457;28;20265;-73
2021/11/23 07:33:59;;;;;;;36.20;18.58;;;5.20;99.90;;;5.14;82.95;102084.72;5014678;28;20241;-74
2021/11/23 07:36:28;;;;;;;34.05;20.70;;;5.20;99.90;;;5.34;83.08;102086.44;5014572;28;20206;-74
2021/11/23 07:39:00;;;;;;;28.10;19.73;;;5.30;99.90;;;5.33;82.77;102079.38;5015038;28;20560;-74
2021/11/23 07:41:31;;;;;;;37.13;21.85;;;5.30;99.90;;;5.44;82.73;102075.72;5014745;28;20232;-74
2021/11/23 07:44:00;;;;;;;31.70;20.88;;;5.30;99.90;;;5.38;82.42;102073.59;5016361;28;20355;-72
2021/11/23 07:46:32;;;;;;;30.45;19.00;;;5.30;99.90;;;5.38;82.53;102082.50;5015141;28;20292;-72
2021/11/23 07:49:02;;;;;;;33.70;18.27;;;5.30;99.90;;;5.37;82.35;102086.19;5016000;28;20448;-73
2021/11/23 07:51:32;;;;;;;32.92;18.77;;;5.30;99.90;;;5.41;82.34;102082.22;5014829;28;20671;-73
2021/11/23 07:54:07;;;;;;;29.92;19.52;;;5.40;99.90;;;5.55;81.92;102081.81;5015178;28;20232;-73
2021/11/23 07:56:38;;;;;;;27.83;19.98;;;5.50;99.90;;;5.49;81.86;102085.06;5014199;28;20206;-73
2021/11/23 07:59:10;;;;;;;28.13;21.55;;;5.50;99.90;;;5.50;82.37;102081.38;5015898;28;20174;-73
2021/11/23 08:01:41;;;;;;;28.60;18.67;;;5.50;99.90;;;5.53;81.99;102081.09;5016350;28;20183;-73
2021/11/23 08:04:10;;;;;;;38.53;19.58;;;5.40;99.90;;;5.68;81.63;102084.22;5015387;28;20214;-72
2021/11/23 08:06:40;;;;;;;33.08;19.60;;;5.60;99.90;;;5.55;81.79;102084.50;5014481;28;20194;-72
2021/11/23 08:09:17;;;;;;;24.30;17.40;;;5.60;99.90;;;5.58;81.96;102088.72;5014254;28;20190;-72
2021/11/23 08:11:52;;;;;;;29.45;19.30;;;5.50;99.90;;;5.41;82.34;102092.13;5014237;28;20638;-73
2021/11/23 08:14:26;;;;;;;30.33;19.70;;;5.50;99.90;;;5.55;82.05;102089.88;5013800;28;20237;-73
2021/11/23 08:16:58;;;;;;;26.65;18.88;;;5.50;99.90;;;5.61;82.12;102094.69;5013594;28;20577;-73
2021/11/23 08:19:27;;;;;;;31.08;19.63;;;5.60;99.90;;;5.51;82.72;102084.94;5014109;28;20185;-73
2021/11/23 08:21:56;;;;;;;32.30;19.15;;;5.50;99.90;;;5.60;82.18;102092.97;5012283;28;20281;-73
2021/11/23 08:24:25;;;;;;;31.05;18.60;;;5.50;99.90;;;5.67;81.84;102086.03;5014802;28;20609;-73
2021/11/23 08:26:58;;;;;;;41.28;21.88;;;5.60;99.90;;;5.76;81.82;102095.06;5014176;28;20197;-73
2021/11/23 08:29:30;;;;;;;35.17;20.33;;;5.60;99.90;;;5.66;81.89;102092.41;5013976;28;20198;-73
2021/11/23 08:32:15;;;;;;;35.80;20.27;;;5.60;99.90;;;5.62;82.25;102104.41;4998470;28;20614;-73
2021/11/23 08:34:45;;;;;;;31.35;19.85;;;5.60;99.90;;;5.51;82.54;102093.81;5015639;28;20220;-73
2021/11/23 08:37:14;;;;;;;34.60;22.20;;;5.50;99.90;;;5.55;82.96;102095.25;5014880;28;20671;-74
2021/11/23 08:39:43;;;;;;;35.42;21.25;;;5.50;99.90;;;5.71;82.19;102101.88;5014993;28;20620;-73
2021/11/23 08:42:17;;;;;;;33.80;20.27;;;5.60;99.90;;;5.66;82.35;102097.75;5014208;28;20221;-73
2021/11/23 08:44:47;;;;;;;33.72;21.83;;;5.60;99.90;;;5.66;82.75;102100.44;5015733;28;20228;-75
2021/11/23 08:47:18;;;;;;;34.72;21.65;;;5.60;99.90;;;5.73;82.28;102114.19;5017402;28;20192;-72
2021/11/23 08:49:51;;;;;;;35.85;23.08;;;5.70;99.90;;;5.80;82.44;102103.72;5014268;28;20194;-73
2021/11/23 08:52:26;;;;;;;30.95;18.17;;;5.70;99.90;;;5.80;82.24;102099.22;5015359;28;20289;-73
2021/11/23 08:54:57;;;;;;;26.88;18.48;;;5.70;99.90;;;5.87;82.01;102096.81;5014390;28;20706;-74
2021/11/23 08:57:27;;;;;;;25.45;18.20;;;5.80;99.90;;;5.80;82.41;102098.34;5014778;28;20218;-73
2021/11/23 09:00:14;;;;;;;30.50;19.50;;;5.80;99.90;;;5.76;82.45;102103.13;5018957;28;20269;-73
2021/11/23 09:03:00;;;;;;;29.73;19.13;;;5.80;99.90;;;5.78;82.30;102100.31;5016563;28;20275;-73
2021/11/23 09:05:51;;;;;;;27.83;18.27;;;5.80;99.90;;;5.91;82.44;102096.38;5017258;28;20186;-73
2021/11/23 09:08:30;;;;;;;30.92;19.75;;;5.80;99.90;;;5.95;82.28;102105.03;5014913;28;20578;-74
2021/11/23 09:11:10;;;;;;;32.00;17.40;;;5.90;99.90;;;6.03;82.04;102121.28;5017178;28;20181;-73
2021/11/23 09:13:45;;;;;;;24.55;17.70;;;5.90;99.90;;;6.09;81.73;102116.19;5013337;28;20697;-74
2021/11/23 09:16:35;;;;;;;26.30;16.17;;;6.00;99.90;;;6.17;81.78;102128.91;5013698;28;20222;-73
2021/11/23 09:19:17;;;;;;;24.75;16.55;;;6.00;99.90;;;6.31;81.68;102128.44;5015358;28;20258;-73
2021/11/23 09:21:49;;;;;;;26.60;16.55;;;6.10;99.90;;;6.24;81.24;102143.47;5016431;28;20198;-74
2021/11/23 09:24:30;;;;;;;27.52;18.40;;;6.20;99.90;;;6.16;81.78;102137.94;5035188;28;20293;-73
2021/11/23 09:27:12;;;;;;;32.80;20.50;;;6.10;99.90;;;6.24;81.76;102132.72;5036108;28;20214;-74
2021/11/23 09:30:09;;;;;;;33.63;20.90;;;6.20;99.90;;;6.30;81.39;102142.88;5011430;28;20221;-73
2021/11/23 09:39:07;;;;;;;26.80;17.08;;;6.30;99.90;;;6.38;81.61;102148.41;5019554;28;20205;-74
2021/11/23 09:42:12;;;;;;;33.75;16.77;;;6.30;99.90;;;6.45;81.15;102144.13;5013539;28;20194;-74
2021/11/23 09:44:46;;;;;;;23.55;18.55;;;6.40;99.90;;;6.41;81.21;102137.34;5013442;28;20217;-73
2021/11/23 09:47:31;;;;;;;25.80;16.10;;;6.40;99.90;;;6.23;81.65;102139.09;5014411;28;20201;-74
2021/11/23 09:50:03;;;;;;;23.13;14.95;;;6.20;99.90;;;6.30;81.65;102145.56;5015533;28;20240;-75
2021/11/23 09:52:40;;;;;;;26.27;16.95;;;6.30;99.90;;;6.27;81.76;102143.16;5015249;28;20252;-73
2021/11/23 09:55:20;;;;;;;25.95;15.80;;;6.20;99.90;;;6.24;81.77;102134.56;5018862;28;20194;-74
2021/11/23 09:57:56;;;;;;;26.35;16.65;;;6.20;99.90;;;6.32;82.27;102142.75;5017050;28;20222;-73
2021/11/23 10:00:37;;;;;;;24.63;17.05;;;6.20;99.90;;;6.47;81.76;102147.53;5014455;28;20221;-73
2021/11/23 10:03:20;;;;;;;26.35;16.35;;;6.40;99.90;;;6.39;81.78;102144.69;5015298;28;20237;-74
2021/11/23 10:06:07;;;;;;;27.35;17.95;;;6.30;99.90;;;6.38;81.76;102148.41;5015257;28;20262;-75
2021/11/23 10:08:42;;;;;;;20.95;16.17;;;6.30;99.90;;;6.43;81.52;102151.50;5014405;28;20332;-74
2021/11/23 10:11:22;;;;;;;24.90;16.08;;;6.40;99.90;;;6.34;82.13;102141.59;5013157;28;20224;-73
2021/11/23 10:13:58;;;;;;;28.38;16.92;;;6.40;99.90;;;6.38;82.32;102150.22;5012960;28;20257;-74
2021/11/23 10:16:40;;;;;;;30.90;15.60;;;6.30;99.90;;;6.54;81.65;102156.69;5013854;28;20213;-73
2021/11/23 10:19:12;;;;;;;22.77;17.40;;;6.40;99.90;;;6.54;81.91;102148.63;5015862;28;20182;-73
2021/11/23 10:21:51;;;;;;;19.73;15.23;;;6.40;99.90;;;6.56;81.70;102153.88;5015237;28;20197;-73
2021/11/23 10:24:24;;;;;;;26.55;17.17;;;6.40;99.90;;;6.65;81.41;102144.06;5013210;28;20214;-73
2021/11/23 10:26:56;;;;;;;30.85;18.25;;;6.50;99.90;;;6.65;81.74;102133.31;5014026;28;20188;-73
2021/11/23 10:29:30;;;;;;;30.73;19.17;;;6.60;99.90;;;6.73;81.50;102139.63;5014482;28;20221;-73
2021/11/23 10:32:16;;;;;;;25.40;18.23;;;6.60;99.90;;;6.70;81.30;102136.41;5012765;28;20221;-73
2021/11/23 10:35:00;;;;;;;29.33;16.88;;;6.60;99.90;;;6.68;81.31;102133.84;5011982;28;20781;-72
2021/11/23 10:37:32;;;;;;;28.30;17.75;;;6.60;99.90;;;6.73;81.51;102136.13;4998090;28;20333;-73